»·PEaware :: SKY26 KLVM-6S0

SKY26 :: KLVM-6S0

FLIGHT INFORMATION

Flight Status: Arrived
Operator:
Sky High Charters
More flights by this operator :: More flights under this callsign
Pilot: Greg L. (27107)
Aircraft: CIRRUS VISIONJET
(SF50)
More flights by this aircraft type
Origin: KLVM Mission
United States
Destination: 6S0 Big Timber
United States
More flights between these airports :: More routes between these airports
Route: LVM2 LVM V2 SUBKY
File this flight plan on PilotEdge
Remarks:
Altitude:
(Current/Filed)
13,000ft
Speed:
(Current/Filed)
155kts
Departed: 03-Jan-21 12:37 PM
Arrived: 03-Jan-21 01:07 PM
Distance/Time
Traveled:
21nm/0:30
Distance/Time
To Go:
Arrived

Flight Plot

Page will automatically refresh every two minutes.

Flight plan parsing failed; only flown route is shown


Map Options




Map Legend


Flown Route
Filed Route
Departure Airport
Arrival Airport
Navaid (VOR, NDB)
Fix

Horizontal Profiles

Position Reports

Time Latitude Longitude Heading Altitude Ground
Speed
03-Jan-21 12:21 45.697350 -110.452395 233 4652ft 0kts
03-Jan-21 12:22 45.697350 -110.452395 233 4652ft 0kts
03-Jan-21 12:23 45.697350 -110.452395 233 4652ft 0kts
03-Jan-21 12:24 45.697350 -110.452395 233 4652ft 0kts
03-Jan-21 12:26 45.697350 -110.452395 233 4652ft 0kts
03-Jan-21 12:26 45.697350 -110.452395 233 4652ft 0kts
03-Jan-21 12:27 45.697350 -110.452395 233 4652ft 0kts
03-Jan-21 12:28 45.697350 -110.452395 233 4652ft 0kts
03-Jan-21 12:29 45.696996 -110.452720 190 4651ft 7kts
03-Jan-21 12:30 45.695815 -110.450093 55 4653ft 23kts
03-Jan-21 12:31 45.702457 -110.437862 10 4641ft 1kts
03-Jan-21 12:32 45.702791 -110.437621 76 4641ft 0kts
03-Jan-21 12:33 45.702791 -110.437621 76 4641ft 0kts
03-Jan-21 12:34 45.702791 -110.437621 76 4641ft 0kts
03-Jan-21 12:35 45.702412 -110.437081 181 4638ft 10kts
03-Jan-21 12:36 45.689910 -110.460494 261 5352ft 121kts
03-Jan-21 12:37 45.710230 -110.503863 318 7014ft 143kts
03-Jan-21 12:38 45.739208 -110.532245 282 8212ft 121kts
03-Jan-21 12:39 45.749519 -110.579436 281 9396ft 124kts
03-Jan-21 12:40 45.777133 -110.603707 23 10589ft 211kts
03-Jan-21 12:41 45.769063 -110.521408 131 11838ft 230kts
03-Jan-21 12:42 45.735092 -110.440404 130 12992ft 236kts
03-Jan-21 12:43 45.723910 -110.344365 93 12995ft 245kts
03-Jan-21 12:44 45.730030 -110.249227 90 13000ft 246kts
03-Jan-21 12:45 45.731133 -110.149466 89 12998ft 245kts
03-Jan-21 12:46 45.732412 -110.049840 89 12999ft 245kts
03-Jan-21 12:47 45.738541 -109.952353 49 13005ft 235kts
03-Jan-21 12:48 45.777064 -109.875717 43 12292ft 231kts
03-Jan-21 12:49 45.815309 -109.801240 43 11390ft 228kts
03-Jan-21 12:50 45.853236 -109.727176 43 10491ft 225kts
03-Jan-21 12:51 45.900968 -109.682583 11 9608ft 200kts
03-Jan-21 12:52 45.946080 -109.651538 67 8740ft 230kts
03-Jan-21 12:53 45.914506 -109.588575 163 7889ft 197kts
03-Jan-21 12:54 45.874295 -109.576134 253 7042ft 117kts
03-Jan-21 12:55 45.876466 -109.620863 283 7004ft 118kts
03-Jan-21 12:56 45.871415 -109.666060 255 7004ft 117kts
03-Jan-21 12:57 45.860091 -109.711317 255 7003ft 118kts
03-Jan-21 12:58 45.850939 -109.755558 259 6801ft 101kts
03-Jan-21 12:59 45.843252 -109.794715 259 6401ft 97kts
03-Jan-21 13:00 45.835497 -109.833999 259 6314ft 99kts
03-Jan-21 13:01 45.827907 -109.872328 259 5818ft 97kts
03-Jan-21 13:02 45.823160 -109.896298 261 5488ft 53kts
03-Jan-21 13:03 45.818901 -109.917780 261 5186ft 53kts
03-Jan-21 13:05 45.813658 -109.943439 260 4885ft 56kts
03-Jan-21 13:05 45.810091 -109.961046 263 4549ft 41kts
03-Jan-21 13:06 45.807094 -109.977268 255 4496ft 16kts
03-Jan-21 13:07 45.807271 -109.976447 77 4496ft 21kts
03-Jan-21 13:08 45.808582 -109.973551 13 4496ft 5kts
03-Jan-21 13:09 45.808752 -109.973647 254 4496ft 0kts
03-Jan-21 13:10 45.808752 -109.973647 254 4496ft 0kts
03-Jan-21 13:11 45.808752 -109.973647 254 4496ft 0kts
03-Jan-21 13:12 45.808752 -109.973647 254 4496ft 0kts
03-Jan-21 13:13 45.808752 -109.973647 254 4496ft 0kts
03-Jan-21 13:14 45.808752 -109.973647 254 4496ft 0kts
03-Jan-21 13:15 45.808752 -109.973647 254 4496ft 0kts
03-Jan-21 13:16 45.808752 -109.973647 254 4496ft 0kts
03-Jan-21 13:17 45.808752 -109.973647 254 4496ft 0kts
03-Jan-21 13:18 45.808752 -109.973647 254 4496ft 0kts
03-Jan-21 13:19 45.808752 -109.973647 254 4496ft 0kts
03-Jan-21 13:20 45.808752 -109.973647 254 4496ft 0kts

Navigation Log

Ident Type
Flight plan parsing failed, navigation log unavailable